sensor_id;sensor_type;location;lat;lon;timestamp;P1;durP1;ratioP1;P2;durP2;ratioP2
82030;SDS011;71592;52.178;4.512;2023-12-14T00:01:50;9.75;;;4.88;;
82030;SDS011;71592;52.178;4.512;2023-12-14T00:04:15;8.33;;;5.27;;
82030;SDS011;71592;52.178;4.512;2023-12-14T00:06:40;7.87;;;5.13;;
82030;SDS011;71592;52.178;4.512;2023-12-14T00:09:05;8.33;;;5.30;;
82030;SDS011;71592;52.178;4.512;2023-12-14T00:11:35;9.20;;;5.65;;
82030;SDS011;71592;52.178;4.512;2023-12-14T00:14:02;8.27;;;5.28;;
82030;SDS011;71592;52.178;4.512;2023-12-14T00:16:27;8.70;;;5.18;;
82030;SDS011;71592;52.178;4.512;2023-12-14T00:18:53;9.13;;;5.60;;
82030;SDS011;71592;52.178;4.512;2023-12-14T00:21:18;8.88;;;5.60;;
82030;SDS011;71592;52.178;4.512;2023-12-14T00:23:43;9.38;;;5.55;;
82030;SDS011;71592;52.178;4.512;2023-12-14T00:26:09;10.80;;;5.73;;
82030;SDS011;71592;52.178;4.512;2023-12-14T00:28:34;9.50;;;5.27;;
82030;SDS011;71592;52.178;4.512;2023-12-14T00:30:59;10.57;;;5.73;;
82030;SDS011;71592;52.178;4.512;2023-12-14T00:33:24;9.80;;;5.83;;
82030;SDS011;71592;52.178;4.512;2023-12-14T00:35:49;10.97;;;5.90;;
82030;SDS011;71592;52.178;4.512;2023-12-14T00:38:15;10.25;;;6.05;;
82030;SDS011;71592;52.178;4.512;2023-12-14T00:40:41;12.20;;;5.47;;
82030;SDS011;71592;52.178;4.512;2023-12-14T00:43:06;9.95;;;5.97;;
82030;SDS011;71592;52.178;4.512;2023-12-14T00:45:31;13.43;;;6.87;;
82030;SDS011;71592;52.178;4.512;2023-12-14T00:47:57;12.37;;;6.67;;
82030;SDS011;71592;52.178;4.512;2023-12-14T00:50:22;10.70;;;6.67;;
82030;SDS011;71592;52.178;4.512;2023-12-14T00:52:47;11.32;;;6.85;;
82030;SDS011;71592;52.178;4.512;2023-12-14T00:55:13;12.63;;;5.93;;
82030;SDS011;71592;52.178;4.512;2023-12-14T00:57:38;12.98;;;6.20;;
82030;SDS011;71592;52.178;4.512;2023-12-14T01:00:03;13.97;;;6.33;;
82030;SDS011;71592;52.178;4.512;2023-12-14T01:02:28;11.68;;;6.47;;
82030;SDS011;71592;52.178;4.512;2023-12-14T01:04:54;11.67;;;5.90;;
82030;SDS011;71592;52.178;4.512;2023-12-14T01:07:19;13.52;;;5.80;;
82030;SDS011;71592;52.178;4.512;2023-12-14T01:09:44;11.67;;;6.17;;
82030;SDS011;71592;52.178;4.512;2023-12-14T01:12:10;10.67;;;5.77;;
82030;SDS011;71592;52.178;4.512;2023-12-14T01:14:35;12.70;;;5.77;;
82030;SDS011;71592;52.178;4.512;2023-12-14T01:17:00;12.43;;;5.70;;
82030;SDS011;71592;52.178;4.512;2023-12-14T01:19:25;11.60;;;6.97;;
82030;SDS011;71592;52.178;4.512;2023-12-14T01:21:53;12.02;;;5.85;;
82030;SDS011;71592;52.178;4.512;2023-12-14T01:24:20;9.63;;;5.53;;
82030;SDS011;71592;52.178;4.512;2023-12-14T01:26:45;11.70;;;6.47;;
82030;SDS011;71592;52.178;4.512;2023-12-14T01:29:10;12.70;;;6.63;;
82030;SDS011;71592;52.178;4.512;2023-12-14T01:31:36;10.68;;;5.85;;
82030;SDS011;71592;52.178;4.512;2023-12-14T01:34:01;12.98;;;6.03;;
82030;SDS011;71592;52.178;4.512;2023-12-14T01:36:27;13.15;;;6.43;;
82030;SDS011;71592;52.178;4.512;2023-12-14T01:38:52;12.70;;;6.50;;
82030;SDS011;71592;52.178;4.512;2023-12-14T01:41:18;13.23;;;6.53;;
82030;SDS011;71592;52.178;4.512;2023-12-14T01:43:43;13.43;;;6.20;;
82030;SDS011;71592;52.178;4.512;2023-12-14T01:46:09;12.38;;;5.60;;
82030;SDS011;71592;52.178;4.512;2023-12-14T01:48:34;12.32;;;6.45;;
82030;SDS011;71592;52.178;4.512;2023-12-14T01:50:59;11.27;;;5.70;;
82030;SDS011;71592;52.178;4.512;2023-12-14T01:53:25;10.03;;;5.77;;
82030;SDS011;71592;52.178;4.512;2023-12-14T01:55:50;9.07;;;5.93;;
82030;SDS011;71592;52.178;4.512;2023-12-14T01:58:15;10.77;;;5.70;;
82030;SDS011;71592;52.178;4.512;2023-12-14T02:03:16;11.75;;;5.93;;
82030;SDS011;71592;52.178;4.512;2023-12-14T02:05:41;9.88;;;5.43;;
82030;SDS011;71592;52.178;4.512;2023-12-14T02:08:07;11.05;;;5.93;;
82030;SDS011;71592;52.178;4.512;2023-12-14T02:10:32;9.17;;;5.40;;
82030;SDS011;71592;52.178;4.512;2023-12-14T02:12:57;16.98;;;6.03;;
82030;SDS011;71592;52.178;4.512;2023-12-14T02:15:23;12.87;;;5.77;;
82030;SDS011;71592;52.178;4.512;2023-12-14T02:17:48;10.47;;;5.80;;
82030;SDS011;71592;52.178;4.512;2023-12-14T02:20:13;11.50;;;5.60;;
82030;SDS011;71592;52.178;4.512;2023-12-14T02:22:57;11.07;;;5.43;;
82030;SDS011;71592;52.178;4.512;2023-12-14T02:25:23;9.68;;;5.05;;
82030;SDS011;71592;52.178;4.512;2023-12-14T02:27:49;10.07;;;5.43;;
82030;SDS011;71592;52.178;4.512;2023-12-14T02:30:15;11.52;;;4.82;;
82030;SDS011;71592;52.178;4.512;2023-12-14T02:32:41;11.05;;;4.95;;
82030;SDS011;71592;52.178;4.512;2023-12-14T02:35:06;11.15;;;4.97;;
82030;SDS011;71592;52.178;4.512;2023-12-14T02:37:32;11.18;;;5.05;;
82030;SDS011;71592;52.178;4.512;2023-12-14T02:39:58;13.98;;;5.40;;
82030;SDS011;71592;52.178;4.512;2023-12-14T02:42:24;13.82;;;5.00;;
82030;SDS011;71592;52.178;4.512;2023-12-14T02:44:49;12.75;;;5.60;;
82030;SDS011;71592;52.178;4.512;2023-12-14T02:47:15;11.43;;;5.10;;
82030;SDS011;71592;52.178;4.512;2023-12-14T02:49:40;8.63;;;4.78;;
82030;SDS011;71592;52.178;4.512;2023-12-14T02:52:06;9.07;;;5.55;;
82030;SDS011;71592;52.178;4.512;2023-12-14T02:54:31;12.05;;;4.95;;
82030;SDS011;71592;52.178;4.512;2023-12-14T02:56:56;9.13;;;5.60;;
82030;SDS011;71592;52.178;4.512;2023-12-14T02:59:21;9.30;;;4.80;;
82030;SDS011;71592;52.178;4.512;2023-12-14T03:01:47;11.33;;;5.60;;
82030;SDS011;71592;52.178;4.512;2023-12-14T03:04:12;11.35;;;4.90;;
82030;SDS011;71592;52.178;4.512;2023-12-14T03:06:37;10.27;;;4.97;;
82030;SDS011;71592;52.178;4.512;2023-12-14T03:09:02;11.75;;;5.22;;
82030;SDS011;71592;52.178;4.512;2023-12-14T03:11:28;8.30;;;4.43;;
82030;SDS011;71592;52.178;4.512;2023-12-14T03:13:53;10.20;;;5.47;;
82030;SDS011;71592;52.178;4.512;2023-12-14T03:16:19;9.43;;;4.97;;
82030;SDS011;71592;52.178;4.512;2023-12-14T03:18:44;7.10;;;4.32;;
82030;SDS011;71592;52.178;4.512;2023-12-14T03:21:10;8.77;;;4.30;;
82030;SDS011;71592;52.178;4.512;2023-12-14T03:23:35;7.00;;;3.67;;
82030;SDS011;71592;52.178;4.512;2023-12-14T03:26:00;10.70;;;4.67;;
82030;SDS011;71592;52.178;4.512;2023-12-14T03:28:26;10.73;;;4.30;;
82030;SDS011;71592;52.178;4.512;2023-12-14T03:30:51;5.55;;;3.70;;
82030;SDS011;71592;52.178;4.512;2023-12-14T03:33:17;8.40;;;4.27;;
82030;SDS011;71592;52.178;4.512;2023-12-14T03:35:42;8.17;;;3.90;;
82030;SDS011;71592;52.178;4.512;2023-12-14T03:38:08;6.70;;;3.78;;
82030;SDS011;71592;52.178;4.512;2023-12-14T03:40:33;9.77;;;4.18;;
82030;SDS011;71592;52.178;4.512;2023-12-14T03:42:59;8.20;;;4.00;;
82030;SDS011;71592;52.178;4.512;2023-12-14T03:45:24;6.57;;;4.10;;
82030;SDS011;71592;52.178;4.512;2023-12-14T03:47:50;9.77;;;4.03;;
82030;SDS011;71592;52.178;4.512;2023-12-14T03:50:15;8.85;;;4.03;;
82030;SDS011;71592;52.178;4.512;2023-12-14T03:52:40;8.73;;;3.67;;
82030;SDS011;71592;52.178;4.512;2023-12-14T03:55:06;8.45;;;3.65;;
82030;SDS011;71592;52.178;4.512;2023-12-14T03:57:31;7.55;;;3.47;;
82030;SDS011;71592;52.178;4.512;2023-12-14T03:59:56;6.57;;;3.60;;
82030;SDS011;71592;52.178;4.512;2023-12-14T04:02:22;5.63;;;3.20;;
82030;SDS011;71592;52.178;4.512;2023-12-14T04:04:47;6.72;;;3.40;;
82030;SDS011;71592;52.178;4.512;2023-12-14T04:07:13;8.00;;;3.28;;
82030;SDS011;71592;52.178;4.512;2023-12-14T04:09:38;7.87;;;3.60;;
82030;SDS011;71592;52.178;4.512;2023-12-14T04:12:03;6.50;;;3.58;;
82030;SDS011;71592;52.178;4.512;2023-12-14T04:14:29;6.90;;;3.45;;
82030;SDS011;71592;52.178;4.512;2023-12-14T04:16:54;5.53;;;2.73;;
82030;SDS011;71592;52.178;4.512;2023-12-14T04:19:19;6.20;;;3.08;;
82030;SDS011;71592;52.178;4.512;2023-12-14T04:21:45;7.00;;;2.87;;
82030;SDS011;71592;52.178;4.512;2023-12-14T04:24:13;5.20;;;2.63;;
82030;SDS011;71592;52.178;4.512;2023-12-14T04:26:38;3.80;;;2.38;;
82030;SDS011;71592;52.178;4.512;2023-12-14T04:29:05;6.35;;;2.85;;
82030;SDS011;71592;52.178;4.512;2023-12-14T04:31:30;7.72;;;2.97;;
82030;SDS011;71592;52.178;4.512;2023-12-14T04:33:56;6.38;;;2.90;;
82030;SDS011;71592;52.178;4.512;2023-12-14T04:36:21;8.65;;;3.50;;
82030;SDS011;71592;52.178;4.512;2023-12-14T04:38:46;6.13;;;2.83;;
82030;SDS011;71592;52.178;4.512;2023-12-14T04:41:12;5.45;;;2.28;;
82030;SDS011;71592;52.178;4.512;2023-12-14T04:43:37;4.70;;;2.60;;
82030;SDS011;71592;52.178;4.512;2023-12-14T04:46:02;6.00;;;2.77;;
82030;SDS011;71592;52.178;4.512;2023-12-14T04:48:28;6.82;;;2.90;;
82030;SDS011;71592;52.178;4.512;2023-12-14T04:50:53;5.53;;;2.60;;
82030;SDS011;71592;52.178;4.512;2023-12-14T04:53:18;4.70;;;2.90;;
82030;SDS011;71592;52.178;4.512;2023-12-14T04:55:43;5.07;;;2.90;;
82030;SDS011;71592;52.178;4.512;2023-12-14T04:58:09;5.70;;;2.80;;
82030;SDS011;71592;52.178;4.512;2023-12-14T05:00:34;4.63;;;3.13;;
82030;SDS011;71592;52.178;4.512;2023-12-14T05:02:59;4.43;;;2.97;;
82030;SDS011;71592;52.178;4.512;2023-12-14T05:05:25;7.40;;;3.37;;
82030;SDS011;71592;52.178;4.512;2023-12-14T05:07:50;7.07;;;3.20;;
82030;SDS011;71592;52.178;4.512;2023-12-14T05:10:15;5.37;;;2.70;;
82030;SDS011;71592;52.178;4.512;2023-12-14T05:12:41;7.38;;;3.00;;
82030;SDS011;71592;52.178;4.512;2023-12-14T05:15:06;5.95;;;3.53;;
82030;SDS011;71592;52.178;4.512;2023-12-14T05:17:32;8.27;;;3.38;;
82030;SDS011;71592;52.178;4.512;2023-12-14T05:19:58;4.25;;;2.85;;
82030;SDS011;71592;52.178;4.512;2023-12-14T05:22:24;5.57;;;3.00;;
82030;SDS011;71592;52.178;4.512;2023-12-14T05:24:49;5.97;;;3.08;;
82030;SDS011;71592;52.178;4.512;2023-12-14T05:27:14;4.90;;;2.67;;
82030;SDS011;71592;52.178;4.512;2023-12-14T05:29:40;4.47;;;2.72;;
82030;SDS011;71592;52.178;4.512;2023-12-14T05:32:05;5.80;;;3.20;;
82030;SDS011;71592;52.178;4.512;2023-12-14T05:34:30;6.18;;;2.70;;
82030;SDS011;71592;52.178;4.512;2023-12-14T05:36:56;5.60;;;3.20;;
82030;SDS011;71592;52.178;4.512;2023-12-14T05:39:21;5.28;;;2.97;;
82030;SDS011;71592;52.178;4.512;2023-12-14T05:41:47;5.40;;;3.17;;
82030;SDS011;71592;52.178;4.512;2023-12-14T05:44:12;5.27;;;3.27;;
82030;SDS011;71592;52.178;4.512;2023-12-14T05:46:38;5.28;;;2.72;;
82030;SDS011;71592;52.178;4.512;2023-12-14T05:49:03;6.00;;;3.00;;
82030;SDS011;71592;52.178;4.512;2023-12-14T05:51:29;4.63;;;2.83;;
82030;SDS011;71592;52.178;4.512;2023-12-14T05:53:54;5.50;;;2.85;;
82030;SDS011;71592;52.178;4.512;2023-12-14T05:56:20;5.73;;;2.93;;
82030;SDS011;71592;52.178;4.512;2023-12-14T05:58:45;5.77;;;2.77;;
82030;SDS011;71592;52.178;4.512;2023-12-14T06:01:10;6.80;;;3.53;;
82030;SDS011;71592;52.178;4.512;2023-12-14T06:03:35;5.57;;;3.20;;
82030;SDS011;71592;52.178;4.512;2023-12-14T06:06:01;6.07;;;3.20;;
82030;SDS011;71592;52.178;4.512;2023-12-14T06:08:26;7.53;;;3.50;;
82030;SDS011;71592;52.178;4.512;2023-12-14T06:10:51;6.33;;;2.93;;
82030;SDS011;71592;52.178;4.512;2023-12-14T06:13:16;6.70;;;2.97;;
82030;SDS011;71592;52.178;4.512;2023-12-14T06:15:42;7.13;;;3.90;;
82030;SDS011;71592;52.178;4.512;2023-12-14T06:18:07;6.63;;;3.63;;
82030;SDS011;71592;52.178;4.512;2023-12-14T06:20:32;7.37;;;3.70;;
82030;SDS011;71592;52.178;4.512;2023-12-14T06:22:57;7.77;;;4.47;;
82030;SDS011;71592;52.178;4.512;2023-12-14T06:25:23;7.40;;;3.60;;
82030;SDS011;71592;52.178;4.512;2023-12-14T06:27:48;6.67;;;3.53;;
82030;SDS011;71592;52.178;4.512;2023-12-14T06:30:14;6.82;;;3.42;;
82030;SDS011;71592;52.178;4.512;2023-12-14T06:32:39;6.45;;;3.83;;
82030;SDS011;71592;52.178;4.512;2023-12-14T06:35:05;5.63;;;3.90;;
82030;SDS011;71592;52.178;4.512;2023-12-14T06:37:30;6.35;;;3.60;;
82030;SDS011;71592;52.178;4.512;2023-12-14T06:39:55;5.37;;;3.67;;
82030;SDS011;71592;52.178;4.512;2023-12-14T06:42:21;6.70;;;3.53;;
82030;SDS011;71592;52.178;4.512;2023-12-14T06:44:46;4.65;;;3.30;;
82030;SDS011;71592;52.178;4.512;2023-12-14T06:47:11;5.93;;;3.27;;
82030;SDS011;71592;52.178;4.512;2023-12-14T06:49:38;7.13;;;3.97;;
82030;SDS011;71592;52.178;4.512;2023-12-14T06:52:05;6.53;;;3.45;;
82030;SDS011;71592;52.178;4.512;2023-12-14T06:54:31;7.60;;;3.47;;
82030;SDS011;71592;52.178;4.512;2023-12-14T06:56:56;6.57;;;3.73;;
82030;SDS011;71592;52.178;4.512;2023-12-14T06:59:22;5.75;;;3.80;;
82030;SDS011;71592;52.178;4.512;2023-12-14T07:01:47;5.95;;;3.45;;
82030;SDS011;71592;52.178;4.512;2023-12-14T07:04:12;5.20;;;3.17;;
82030;SDS011;71592;52.178;4.512;2023-12-14T07:06:38;6.35;;;3.55;;
82030;SDS011;71592;52.178;4.512;2023-12-14T07:09:04;5.88;;;3.78;;
82030;SDS011;71592;52.178;4.512;2023-12-14T07:11:30;6.63;;;3.63;;
82030;SDS011;71592;52.178;4.512;2023-12-14T07:13:55;5.77;;;3.20;;
82030;SDS011;71592;52.178;4.512;2023-12-14T07:16:20;5.47;;;3.27;;
82030;SDS011;71592;52.178;4.512;2023-12-14T07:18:46;8.27;;;4.20;;
82030;SDS011;71592;52.178;4.512;2023-12-14T07:21:12;5.78;;;3.47;;
82030;SDS011;71592;52.178;4.512;2023-12-14T07:23:37;5.55;;;3.58;;
82030;SDS011;71592;52.178;4.512;2023-12-14T07:26:02;5.30;;;3.17;;
82030;SDS011;71592;52.178;4.512;2023-12-14T07:28:28;7.80;;;3.92;;
82030;SDS011;71592;52.178;4.512;2023-12-14T07:30:53;6.82;;;3.83;;
82030;SDS011;71592;52.178;4.512;2023-12-14T07:33:18;7.57;;;3.80;;
82030;SDS011;71592;52.178;4.512;2023-12-14T07:35:43;9.98;;;4.10;;
82030;SDS011;71592;52.178;4.512;2023-12-14T07:38:09;6.07;;;3.40;;
82030;SDS011;71592;52.178;4.512;2023-12-14T07:40:34;6.15;;;3.70;;
82030;SDS011;71592;52.178;4.512;2023-12-14T07:43:00;7.10;;;3.28;;
82030;SDS011;71592;52.178;4.512;2023-12-14T07:45:25;8.07;;;4.13;;
82030;SDS011;71592;52.178;4.512;2023-12-14T07:47:50;5.87;;;3.93;;
82030;SDS011;71592;52.178;4.512;2023-12-14T07:50:16;6.37;;;3.67;;
82030;SDS011;71592;52.178;4.512;2023-12-14T07:52:41;7.50;;;3.85;;
82030;SDS011;71592;52.178;4.512;2023-12-14T07:55:07;7.13;;;3.67;;
82030;SDS011;71592;52.178;4.512;2023-12-14T07:57:32;7.00;;;4.00;;
82030;SDS011;71592;52.178;4.512;2023-12-14T07:59:57;7.73;;;4.00;;
82030;SDS011;71592;52.178;4.512;2023-12-14T08:02:23;7.15;;;3.70;;
82030;SDS011;71592;52.178;4.512;2023-12-14T08:04:48;6.03;;;3.85;;
82030;SDS011;71592;52.178;4.512;2023-12-14T08:07:13;7.68;;;3.90;;
82030;SDS011;71592;52.178;4.512;2023-12-14T08:09:39;5.37;;;4.13;;
82030;SDS011;71592;52.178;4.512;2023-12-14T08:12:04;8.65;;;3.88;;
82030;SDS011;71592;52.178;4.512;2023-12-14T08:14:31;5.15;;;3.22;;
82030;SDS011;71592;52.178;4.512;2023-12-14T08:16:57;7.45;;;3.35;;
82030;SDS011;71592;52.178;4.512;2023-12-14T08:19:22;9.17;;;3.93;;
82030;SDS011;71592;52.178;4.512;2023-12-14T08:21:47;6.60;;;3.72;;
82030;SDS011;71592;52.178;4.512;2023-12-14T08:24:12;8.27;;;4.63;;
82030;SDS011;71592;52.178;4.512;2023-12-14T08:26:38;11.47;;;4.30;;
82030;SDS011;71592;52.178;4.512;2023-12-14T08:29:03;7.40;;;3.73;;
82030;SDS011;71592;52.178;4.512;2023-12-14T08:31:28;7.85;;;4.38;;
82030;SDS011;71592;52.178;4.512;2023-12-14T08:33:54;6.50;;;4.20;;
82030;SDS011;71592;52.178;4.512;2023-12-14T08:36:19;9.73;;;4.35;;
82030;SDS011;71592;52.178;4.512;2023-12-14T08:38:45;8.70;;;4.50;;
82030;SDS011;71592;52.178;4.512;2023-12-14T08:41:13;9.03;;;4.20;;
82030;SDS011;71592;52.178;4.512;2023-12-14T08:43:39;7.07;;;4.13;;
82030;SDS011;71592;52.178;4.512;2023-12-14T08:46:04;9.00;;;4.50;;
82030;SDS011;71592;52.178;4.512;2023-12-14T08:48:30;6.25;;;4.13;;
82030;SDS011;71592;52.178;4.512;2023-12-14T08:50:55;8.02;;;4.07;;
82030;SDS011;71592;52.178;4.512;2023-12-14T08:53:20;6.65;;;4.20;;
82030;SDS011;71592;52.178;4.512;2023-12-14T08:55:48;7.75;;;4.07;;
82030;SDS011;71592;52.178;4.512;2023-12-14T08:58:14;8.48;;;3.90;;
82030;SDS011;71592;52.178;4.512;2023-12-14T09:00:39;6.90;;;3.17;;
82030;SDS011;71592;52.178;4.512;2023-12-14T09:03:05;7.35;;;3.47;;
82030;SDS011;71592;52.178;4.512;2023-12-14T09:05:30;7.43;;;3.53;;
82030;SDS011;71592;52.178;4.512;2023-12-14T09:07:55;7.50;;;3.67;;
82030;SDS011;71592;52.178;4.512;2023-12-14T09:10:22;10.73;;;3.70;;
82030;SDS011;71592;52.178;4.512;2023-12-14T09:12:47;6.40;;;3.33;;
82030;SDS011;71592;52.178;4.512;2023-12-14T09:15:13;7.43;;;3.88;;
82030;SDS011;71592;52.178;4.512;2023-12-14T09:17:40;6.05;;;3.05;;
82030;SDS011;71592;52.178;4.512;2023-12-14T09:20:07;6.75;;;3.90;;
82030;SDS011;71592;52.178;4.512;2023-12-14T09:22:33;5.65;;;3.65;;
82030;SDS011;71592;52.178;4.512;2023-12-14T09:24:58;5.83;;;3.90;;
82030;SDS011;71592;52.178;4.512;2023-12-14T09:27:23;6.40;;;3.60;;
82030;SDS011;71592;52.178;4.512;2023-12-14T09:29:48;6.63;;;3.57;;
82030;SDS011;71592;52.178;4.512;2023-12-14T09:32:13;6.43;;;3.57;;
82030;SDS011;71592;52.178;4.512;2023-12-14T09:34:39;6.45;;;3.50;;
82030;SDS011;71592;52.178;4.512;2023-12-14T09:37:04;7.60;;;4.15;;
82030;SDS011;71592;52.178;4.512;2023-12-14T09:39:29;5.97;;;3.47;;
82030;SDS011;71592;52.178;4.512;2023-12-14T09:42:04;5.73;;;3.47;;
82030;SDS011;71592;52.178;4.512;2023-12-14T09:44:30;7.55;;;3.72;;
82030;SDS011;71592;52.178;4.512;2023-12-14T09:46:56;5.38;;;3.38;;
82030;SDS011;71592;52.178;4.512;2023-12-14T09:49:22;7.70;;;4.28;;
82030;SDS011;71592;52.178;4.512;2023-12-14T09:51:49;5.68;;;3.53;;
82030;SDS011;71592;52.178;4.512;2023-12-14T09:54:15;5.73;;;3.43;;
82030;SDS011;71592;52.178;4.512;2023-12-14T09:56:46;6.50;;;3.50;;
82030;SDS011;71592;52.178;4.512;2023-12-14T09:59:12;6.72;;;3.80;;
82030;SDS011;71592;52.178;4.512;2023-12-14T10:01:37;6.82;;;4.30;;
82030;SDS011;71592;52.178;4.512;2023-12-14T10:04:09;8.38;;;4.50;;
82030;SDS011;71592;52.178;4.512;2023-12-14T10:06:35;8.63;;;4.38;;
82030;SDS011;71592;52.178;4.512;2023-12-14T10:09:00;8.20;;;4.35;;
82030;SDS011;71592;52.178;4.512;2023-12-14T10:11:26;7.57;;;4.20;;
82030;SDS011;71592;52.178;4.512;2023-12-14T10:13:52;9.65;;;4.88;;
82030;SDS011;71592;52.178;4.512;2023-12-14T10:16:30;7.32;;;4.97;;
82030;SDS011;71592;52.178;4.512;2023-12-14T10:18:56;9.07;;;4.60;;
82030;SDS011;71592;52.178;4.512;2023-12-14T10:21:23;8.10;;;4.65;;
82030;SDS011;71592;52.178;4.512;2023-12-14T10:23:48;8.48;;;3.97;;
82030;SDS011;71592;52.178;4.512;2023-12-14T10:26:14;8.23;;;4.50;;
82030;SDS011;71592;52.178;4.512;2023-12-14T10:28:39;6.95;;;4.22;;
82030;SDS011;71592;52.178;4.512;2023-12-14T10:31:04;8.27;;;4.40;;
82030;SDS011;71592;52.178;4.512;2023-12-14T10:33:30;9.40;;;4.35;;
82030;SDS011;71592;52.178;4.512;2023-12-14T10:35:55;8.77;;;4.82;;
82030;SDS011;71592;52.178;4.512;2023-12-14T10:38:21;7.22;;;4.30;;
82030;SDS011;71592;52.178;4.512;2023-12-14T10:40:48;6.53;;;4.47;;
82030;SDS011;71592;52.178;4.512;2023-12-14T10:43:13;7.78;;;4.82;;
82030;SDS011;71592;52.178;4.512;2023-12-14T10:45:40;7.20;;;4.63;;
82030;SDS011;71592;52.178;4.512;2023-12-14T10:48:08;7.88;;;4.47;;
82030;SDS011;71592;52.178;4.512;2023-12-14T10:50:34;6.75;;;4.22;;
82030;SDS011;71592;52.178;4.512;2023-12-14T10:53:01;9.45;;;4.95;;
82030;SDS011;71592;52.178;4.512;2023-12-14T10:55:31;6.80;;;4.65;;
82030;SDS011;71592;52.178;4.512;2023-12-14T10:57:58;8.80;;;4.53;;
82030;SDS011;71592;52.178;4.512;2023-12-14T11:00:23;8.90;;;4.10;;
82030;SDS011;71592;52.178;4.512;2023-12-14T11:02:49;7.10;;;3.97;;
82030;SDS011;71592;52.178;4.512;2023-12-14T11:05:15;7.40;;;4.80;;
82030;SDS011;71592;52.178;4.512;2023-12-14T11:07:49;9.82;;;4.95;;
82030;SDS011;71592;52.178;4.512;2023-12-14T11:10:14;7.65;;;5.55;;
82030;SDS011;71592;52.178;4.512;2023-12-14T11:15:24;6.30;;;3.67;;
82030;SDS011;71592;52.178;4.512;2023-12-14T11:18:32;7.78;;;5.10;;
82030;SDS011;71592;52.178;4.512;2023-12-14T11:23:10;7.57;;;4.18;;
82030;SDS011;71592;52.178;4.512;2023-12-14T11:25:35;10.75;;;4.72;;
82030;SDS011;71592;52.178;4.512;2023-12-14T11:28:04;8.30;;;3.97;;
82030;SDS011;71592;52.178;4.512;2023-12-14T11:30:31;6.80;;;4.20;;
82030;SDS011;71592;52.178;4.512;2023-12-14T11:32:57;8.10;;;4.37;;
82030;SDS011;71592;52.178;4.512;2023-12-14T11:35:22;7.15;;;4.28;;
82030;SDS011;71592;52.178;4.512;2023-12-14T11:37:48;6.50;;;3.88;;
82030;SDS011;71592;52.178;4.512;2023-12-14T11:40:14;7.40;;;3.75;;
82030;SDS011;71592;52.178;4.512;2023-12-14T11:42:41;7.75;;;4.47;;
82030;SDS011;71592;52.178;4.512;2023-12-14T11:45:07;8.13;;;4.32;;
82030;SDS011;71592;52.178;4.512;2023-12-14T11:47:32;7.53;;;4.43;;
82030;SDS011;71592;52.178;4.512;2023-12-14T11:49:57;9.65;;;4.53;;
82030;SDS011;71592;52.178;4.512;2023-12-14T11:52:23;10.40;;;4.70;;
82030;SDS011;71592;52.178;4.512;2023-12-14T11:54:48;7.77;;;4.63;;
82030;SDS011;71592;52.178;4.512;2023-12-14T11:57:14;10.75;;;4.82;;
82030;SDS011;71592;52.178;4.512;2023-12-14T11:59:41;7.40;;;4.03;;
82030;SDS011;71592;52.178;4.512;2023-12-14T12:02:07;7.97;;;4.72;;
82030;SDS011;71592;52.178;4.512;2023-12-14T12:04:32;10.02;;;4.20;;
82030;SDS011;71592;52.178;4.512;2023-12-14T12:06:58;8.02;;;4.20;;
82030;SDS011;71592;52.178;4.512;2023-12-14T12:09:37;6.80;;;3.90;;
82030;SDS011;71592;52.178;4.512;2023-12-14T12:12:07;8.50;;;4.35;;
82030;SDS011;71592;52.178;4.512;2023-12-14T12:14:32;10.77;;;4.55;;
82030;SDS011;71592;52.178;4.512;2023-12-14T12:16:57;8.43;;;4.30;;
82030;SDS011;71592;52.178;4.512;2023-12-14T12:19:22;7.23;;;3.57;;
82030;SDS011;71592;52.178;4.512;2023-12-14T12:21:48;8.52;;;4.15;;
82030;SDS011;71592;52.178;4.512;2023-12-14T12:24:13;6.10;;;3.90;;
82030;SDS011;71592;52.178;4.512;2023-12-14T12:26:39;9.23;;;5.03;;
82030;SDS011;71592;52.178;4.512;2023-12-14T12:29:04;8.63;;;4.82;;
82030;SDS011;71592;52.178;4.512;2023-12-14T12:31:31;15.98;;;4.50;;
82030;SDS011;71592;52.178;4.512;2023-12-14T12:33:56;9.30;;;4.10;;
82030;SDS011;71592;52.178;4.512;2023-12-14T12:36:22;8.88;;;4.40;;
82030;SDS011;71592;52.178;4.512;2023-12-14T12:38:47;8.18;;;4.20;;
82030;SDS011;71592;52.178;4.512;2023-12-14T12:41:12;7.30;;;4.40;;
82030;SDS011;71592;52.178;4.512;2023-12-14T12:43:38;8.57;;;4.43;;
82030;SDS011;71592;52.178;4.512;2023-12-14T12:46:03;8.73;;;4.70;;
82030;SDS011;71592;52.178;4.512;2023-12-14T12:48:29;7.72;;;4.28;;
82030;SDS011;71592;52.178;4.512;2023-12-14T12:50:54;9.07;;;5.28;;
82030;SDS011;71592;52.178;4.512;2023-12-14T12:53:20;9.30;;;5.50;;
82030;SDS011;71592;52.178;4.512;2023-12-14T12:55:45;9.48;;;5.05;;
82030;SDS011;71592;52.178;4.512;2023-12-14T12:58:10;9.27;;;4.83;;
82030;SDS011;71592;52.178;4.512;2023-12-14T13:00:36;8.48;;;5.13;;
82030;SDS011;71592;52.178;4.512;2023-12-14T13:03:03;10.48;;;5.35;;
82030;SDS011;71592;52.178;4.512;2023-12-14T13:05:28;8.65;;;4.65;;
82030;SDS011;71592;52.178;4.512;2023-12-14T13:07:53;8.60;;;4.90;;
82030;SDS011;71592;52.178;4.512;2023-12-14T13:10:19;8.98;;;4.50;;
82030;SDS011;71592;52.178;4.512;2023-12-14T13:12:51;7.45;;;4.43;;
82030;SDS011;71592;52.178;4.512;2023-12-14T13:15:17;9.07;;;4.90;;
82030;SDS011;71592;52.178;4.512;2023-12-14T13:17:43;8.00;;;5.05;;
82030;SDS011;71592;52.178;4.512;2023-12-14T13:20:09;9.68;;;4.57;;
82030;SDS011;71592;52.178;4.512;2023-12-14T13:22:34;11.30;;;4.95;;
82030;SDS011;71592;52.178;4.512;2023-12-14T13:25:00;7.10;;;4.18;;
82030;SDS011;71592;52.178;4.512;2023-12-14T13:27:25;7.85;;;4.28;;
82030;SDS011;71592;52.178;4.512;2023-12-14T13:29:50;8.57;;;4.60;;
82030;SDS011;71592;52.178;4.512;2023-12-14T13:32:16;8.65;;;5.28;;
82030;SDS011;71592;52.178;4.512;2023-12-14T13:34:41;9.20;;;5.07;;
82030;SDS011;71592;52.178;4.512;2023-12-14T13:37:07;9.40;;;4.78;;
82030;SDS011;71592;52.178;4.512;2023-12-14T13:39:34;9.38;;;4.40;;
82030;SDS011;71592;52.178;4.512;2023-12-14T13:42:02;9.13;;;5.72;;
82030;SDS011;71592;52.178;4.512;2023-12-14T13:44:28;8.77;;;4.93;;
82030;SDS011;71592;52.178;4.512;2023-12-14T13:46:54;6.72;;;4.80;;
82030;SDS011;71592;52.178;4.512;2023-12-14T13:49:19;9.07;;;4.90;;
82030;SDS011;71592;52.178;4.512;2023-12-14T13:51:44;8.63;;;5.07;;
82030;SDS011;71592;52.178;4.512;2023-12-14T13:54:10;7.45;;;4.43;;
82030;SDS011;71592;52.178;4.512;2023-12-14T13:56:35;9.00;;;5.90;;
82030;SDS011;71592;52.178;4.512;2023-12-14T13:59:01;9.10;;;4.97;;
82030;SDS011;71592;52.178;4.512;2023-12-14T14:01:26;10.70;;;5.15;;
82030;SDS011;71592;52.178;4.512;2023-12-14T14:03:51;8.40;;;4.53;;
82030;SDS011;71592;52.178;4.512;2023-12-14T14:06:17;9.95;;;5.13;;
82030;SDS011;71592;52.178;4.512;2023-12-14T14:08:42;10.00;;;5.50;;
82030;SDS011;71592;52.178;4.512;2023-12-14T14:11:07;9.47;;;5.13;;
82030;SDS011;71592;52.178;4.512;2023-12-14T14:13:32;7.70;;;5.03;;
82030;SDS011;71592;52.178;4.512;2023-12-14T14:15:58;10.60;;;5.57;;
82030;SDS011;71592;52.178;4.512;2023-12-14T14:18:23;10.73;;;5.57;;
82030;SDS011;71592;52.178;4.512;2023-12-14T14:20:49;11.93;;;5.43;;
82030;SDS011;71592;52.178;4.512;2023-12-14T14:23:15;10.57;;;5.95;;
82030;SDS011;71592;52.178;4.512;2023-12-14T14:25:40;9.07;;;5.00;;
82030;SDS011;71592;52.178;4.512;2023-12-14T14:28:05;8.27;;;4.82;;
82030;SDS011;71592;52.178;4.512;2023-12-14T14:30:31;7.75;;;4.82;;
82030;SDS011;71592;52.178;4.512;2023-12-14T14:32:56;10.57;;;6.20;;
82030;SDS011;71592;52.178;4.512;2023-12-14T14:35:22;9.25;;;5.25;;
82030;SDS011;71592;52.178;4.512;2023-12-14T14:37:48;10.23;;;5.05;;
82030;SDS011;71592;52.178;4.512;2023-12-14T14:40:15;8.65;;;5.35;;
82030;SDS011;71592;52.178;4.512;2023-12-14T14:42:40;10.70;;;5.78;;
82030;SDS011;71592;52.178;4.512;2023-12-14T14:45:09;8.38;;;5.30;;